Terminal Aerodrome Forecast
Issued by NWS

Home | Current Version | Previous Version | Text Only | Print | Product List | Glossary On
Versions: 1 2 3 4 5 6 7 8 9 10 11 12 13 14
000
FTUS42 TJSJ 232300
TAFJPS
TAF
TJPS 232328Z 2400/2424 05006KT P6SM SCT025 SCT120
     FM241500 13010KT P6SM FEW030 SCT060
     FM242330 09007KT P6SM FEW030 SCT060
      AMD NOT SKED TIL 240300=

USA.gov is the U.S. government's official web portal to all federal, state and local government web resources and services.